Sacramento, California
Traffic Map
Current Weather Conditions
Sacramento, California
Clear
Clear
67°
Feels Like: 67°
Wind Chill: 67° Ceiling: Unl
Heat Index: 67° Visibility: 10mi
Dew Point: 57° Wind: 12mph
Humidity: 70% Direction: 210° (SSW)
Pressure: 29.86in Gusts: 20mph
Raw Report DataKSAC 210553Z 21010G17KT 10SM CLR 19/14 A2986 RMK AO2 LTG DSNT NE SLP110 6//// T01940139 10300 20194 50010 PNO $
Traffic Incident Summary
Active as of:
Severity:
Category:
InformationThere was an issue retrieving the traffic information for this location. Please try a different location or try again shortly.
Advertisements
Track Severe Weather on mobile